Key West, Florida
Current Conditions -  °F | °C
As of 4:53 AM on Sunday 26 Oct 2014 (Local Time) from KEYW Reporting Station
Clear Clear  
Wind Chill: 74°   Ceiling: Unl
Heat Index: 74°   Visibility: 10mi
Dew Point: 68°   Wind: 7mph
Humidity: 82%   Direction: 20°NNE
Pressure: 29.92"   Gusts: NA
Location:  24.55°N, 81.8°W
Report Text: KEYW 260853Z AUTO 02006KT 10SM CLR 23/20 A2992 RMK AO2 SLP130 T02330200 55006
Loading
Personal Weather Stations






























Interactive Weather Map
Tropical Storm Tracking
New forecast layout! Learn more

10-Day Weather Forecast

Advertisements
Track Severe Weather on mobile